sensor_id;sensor_type;location;lat;lon;timestamp;temperature;humidity
7159;DHT22;63175;52.374;13.132;2022-11-21T00:01:20;-0.60;99.90
7159;DHT22;63175;52.374;13.132;2022-11-21T00:03:47;-0.60;99.90
7159;DHT22;63175;52.374;13.132;2022-11-21T00:06:15;-0.60;99.90
7159;DHT22;63175;52.374;13.132;2022-11-21T00:08:42;-0.60;99.90
7159;DHT22;63175;52.374;13.132;2022-11-21T00:11:09;-0.60;99.90
7159;DHT22;63175;52.374;13.132;2022-11-21T00:13:36;-0.60;99.90
7159;DHT22;63175;52.374;13.132;2022-11-21T00:16:06;-0.60;99.90
7159;DHT22;63175;52.374;13.132;2022-11-21T00:18:34;-0.50;99.90
7159;DHT22;63175;52.374;13.132;2022-11-21T00:21:05;-0.50;99.90
7159;DHT22;63175;52.374;13.132;2022-11-21T00:23:32;-0.50;99.90
7159;DHT22;63175;52.374;13.132;2022-11-21T00:26:02;-0.50;99.90
7159;DHT22;63175;52.374;13.132;2022-11-21T00:28:29;-0.40;99.90
7159;DHT22;63175;52.374;13.132;2022-11-21T00:30:56;-0.40;99.90
7159;DHT22;63175;52.374;13.132;2022-11-21T00:33:24;-0.40;99.90
7159;DHT22;63175;52.374;13.132;2022-11-21T00:35:51;-0.40;99.90
7159;DHT22;63175;52.374;13.132;2022-11-21T00:38:18;-0.40;99.90
7159;DHT22;63175;52.374;13.132;2022-11-21T00:40:45;-0.40;99.90
7159;DHT22;63175;52.374;13.132;2022-11-21T00:43:12;-0.30;99.90
7159;DHT22;63175;52.374;13.132;2022-11-21T00:45:39;-0.30;99.90
7159;DHT22;63175;52.374;13.132;2022-11-21T00:48:06;-0.30;99.90
7159;DHT22;63175;52.374;13.132;2022-11-21T00:50:34;-0.30;99.90
7159;DHT22;63175;52.374;13.132;2022-11-21T00:53:01;-0.30;99.90
7159;DHT22;63175;52.374;13.132;2022-11-21T00:55:28;-0.30;99.90
7159;DHT22;63175;52.374;13.132;2022-11-21T00:57:54;-0.30;99.90
7159;DHT22;63175;52.374;13.132;2022-11-21T01:00:21;-0.30;99.90
7159;DHT22;63175;52.374;13.132;2022-11-21T01:02:48;-0.20;99.90
7159;DHT22;63175;52.374;13.132;2022-11-21T01:05:15;-0.30;99.90
7159;DHT22;63175;52.374;13.132;2022-11-21T01:07:43;-0.30;99.90
7159;DHT22;63175;52.374;13.132;2022-11-21T01:10:10;-0.30;99.90
7159;DHT22;63175;52.374;13.132;2022-11-21T01:12:37;-0.30;99.90
7159;DHT22;63175;52.374;13.132;2022-11-21T01:15:05;-0.30;99.90
7159;DHT22;63175;52.374;13.132;2022-11-21T01:17:32;-0.30;99.90
7159;DHT22;63175;52.374;13.132;2022-11-21T01:19:59;-0.30;99.90
7159;DHT22;63175;52.374;13.132;2022-11-21T01:22:25;-0.30;99.90
7159;DHT22;63175;52.374;13.132;2022-11-21T01:24:54;-0.30;99.90
7159;DHT22;63175;52.374;13.132;2022-11-21T01:27:20;-0.30;99.90
7159;DHT22;63175;52.374;13.132;2022-11-21T01:29:47;-0.30;99.90
7159;DHT22;63175;52.374;13.132;2022-11-21T01:32:14;-0.30;99.90
7159;DHT22;63175;52.374;13.132;2022-11-21T01:34:41;-0.30;99.90
7159;DHT22;63175;52.374;13.132;2022-11-21T01:37:08;-0.30;99.90
7159;DHT22;63175;52.374;13.132;2022-11-21T01:39:35;-0.30;99.90
7159;DHT22;63175;52.374;13.132;2022-11-21T01:42:03;-0.30;99.90
7159;DHT22;63175;52.374;13.132;2022-11-21T01:44:46;-0.30;99.90
7159;DHT22;63175;52.374;13.132;2022-11-21T01:47:14;-0.30;99.90
7159;DHT22;63175;52.374;13.132;2022-11-21T01:49:41;-0.40;99.90
7159;DHT22;63175;52.374;13.132;2022-11-21T01:52:12;-0.40;99.90
7159;DHT22;63175;52.374;13.132;2022-11-21T01:54:43;-0.40;99.90
7159;DHT22;63175;52.374;13.132;2022-11-21T01:57:14;-0.40;99.90
7159;DHT22;63175;52.374;13.132;2022-11-21T01:59:46;-0.40;99.90
7159;DHT22;63175;52.374;13.132;2022-11-21T02:02:17;-0.40;99.90
7159;DHT22;63175;52.374;13.132;2022-11-21T02:04:46;-0.40;99.90
7159;DHT22;63175;52.374;13.132;2022-11-21T02:07:17;-0.40;99.90
7159;DHT22;63175;52.374;13.132;2022-11-21T02:09:48;-0.40;99.90
7159;DHT22;63175;52.374;13.132;2022-11-21T02:12:24;-0.40;99.90
7159;DHT22;63175;52.374;13.132;2022-11-21T02:14:52;-0.50;99.90
7159;DHT22;63175;52.374;13.132;2022-11-21T02:17:20;-0.40;99.90
7159;DHT22;63175;52.374;13.132;2022-11-21T02:19:55;-0.50;99.90
7159;DHT22;63175;52.374;13.132;2022-11-21T02:22:29;-0.50;99.90
7159;DHT22;63175;52.374;13.132;2022-11-21T02:25:06;-0.40;99.90
7159;DHT22;63175;52.374;13.132;2022-11-21T02:27:34;-0.40;99.90
7159;DHT22;63175;52.374;13.132;2022-11-21T02:30:02;-0.40;99.90
7159;DHT22;63175;52.374;13.132;2022-11-21T02:32:33;-0.40;99.90
7159;DHT22;63175;52.374;13.132;2022-11-21T02:35:00;-0.40;99.90
7159;DHT22;63175;52.374;13.132;2022-11-21T02:37:28;-0.40;99.90
7159;DHT22;63175;52.374;13.132;2022-11-21T02:39:55;-0.40;99.90
7159;DHT22;63175;52.374;13.132;2022-11-21T02:42:29;-0.40;99.90
7159;DHT22;63175;52.374;13.132;2022-11-21T02:45:04;-0.40;99.90
7159;DHT22;63175;52.374;13.132;2022-11-21T02:47:34;-0.40;99.90
7159;DHT22;63175;52.374;13.132;2022-11-21T02:50:09;-0.40;99.90
7159;DHT22;63175;52.374;13.132;2022-11-21T02:52:37;-0.40;99.90
7159;DHT22;63175;52.374;13.132;2022-11-21T02:55:04;-0.40;99.90
7159;DHT22;63175;52.374;13.132;2022-11-21T02:57:33;-0.30;99.90
7159;DHT22;63175;52.374;13.132;2022-11-21T02:59:59;-0.40;99.90
7159;DHT22;63175;52.374;13.132;2022-11-21T03:02:26;-0.30;99.90
7159;DHT22;63175;52.374;13.132;2022-11-21T03:04:53;-0.30;99.90
7159;DHT22;63175;52.374;13.132;2022-11-21T03:07:20;-0.30;99.90
7159;DHT22;63175;52.374;13.132;2022-11-21T03:09:47;-0.30;99.90
7159;DHT22;63175;52.374;13.132;2022-11-21T03:12:14;-0.30;99.90
7159;DHT22;63175;52.374;13.132;2022-11-21T03:14:42;-0.30;99.90
7159;DHT22;63175;52.374;13.132;2022-11-21T03:17:09;-0.30;99.90
7159;DHT22;63175;52.374;13.132;2022-11-21T03:19:36;-0.30;99.90
7159;DHT22;63175;52.374;13.132;2022-11-21T03:22:03;-0.30;99.90
7159;DHT22;63175;52.374;13.132;2022-11-21T03:24:30;-0.30;99.90
7159;DHT22;63175;52.374;13.132;2022-11-21T03:26:57;-0.30;99.90
7159;DHT22;63175;52.374;13.132;2022-11-21T03:29:23;-0.30;99.90
7159;DHT22;63175;52.374;13.132;2022-11-21T03:31:52;-0.30;99.90
7159;DHT22;63175;52.374;13.132;2022-11-21T03:34:19;-0.30;99.90
7159;DHT22;63175;52.374;13.132;2022-11-21T03:36:45;-0.30;99.90
7159;DHT22;63175;52.374;13.132;2022-11-21T03:39:12;-0.30;99.90
7159;DHT22;63175;52.374;13.132;2022-11-21T03:41:39;-0.30;99.90
7159;DHT22;63175;52.374;13.132;2022-11-21T03:44:08;-0.30;99.90
7159;DHT22;63175;52.374;13.132;2022-11-21T03:46:36;-0.20;99.90
7159;DHT22;63175;52.374;13.132;2022-11-21T03:49:05;-0.20;99.90
7159;DHT22;63175;52.374;13.132;2022-11-21T03:51:32;-0.30;99.90
7159;DHT22;63175;52.374;13.132;2022-11-21T03:53:59;-0.20;99.90
7159;DHT22;63175;52.374;13.132;2022-11-21T03:56:26;-0.20;99.90
7159;DHT22;63175;52.374;13.132;2022-11-21T03:58:53;-0.30;99.90
7159;DHT22;63175;52.374;13.132;2022-11-21T04:01:20;-0.30;99.90
7159;DHT22;63175;52.374;13.132;2022-11-21T04:03:48;-0.20;99.90
7159;DHT22;63175;52.374;13.132;2022-11-21T04:06:19;-0.20;99.90
7159;DHT22;63175;52.374;13.132;2022-11-21T04:08:47;-0.20;99.90
7159;DHT22;63175;52.374;13.132;2022-11-21T04:11:13;-0.20;99.90
7159;DHT22;63175;52.374;13.132;2022-11-21T04:13:41;-0.20;99.90
7159;DHT22;63175;52.374;13.132;2022-11-21T04:16:08;-0.20;99.90
7159;DHT22;63175;52.374;13.132;2022-11-21T04:18:35;-0.20;99.90
7159;DHT22;63175;52.374;13.132;2022-11-21T04:21:03;-0.20;99.90
7159;DHT22;63175;52.374;13.132;2022-11-21T04:23:31;-0.20;99.90
7159;DHT22;63175;52.374;13.132;2022-11-21T04:25:59;-0.20;99.90
7159;DHT22;63175;52.374;13.132;2022-11-21T04:28:26;-0.20;99.90
7159;DHT22;63175;52.374;13.132;2022-11-21T04:30:53;-0.20;99.90
7159;DHT22;63175;52.374;13.132;2022-11-21T04:33:19;-0.20;99.90
7159;DHT22;63175;52.374;13.132;2022-11-21T04:35:46;-0.20;99.90
7159;DHT22;63175;52.374;13.132;2022-11-21T04:38:13;-0.20;99.90
7159;DHT22;63175;52.374;13.132;2022-11-21T04:40:43;-0.20;99.90
7159;DHT22;63175;52.374;13.132;2022-11-21T04:43:10;-0.20;99.90
7159;DHT22;63175;52.374;13.132;2022-11-21T04:45:37;-0.10;99.90
7159;DHT22;63175;52.374;13.132;2022-11-21T04:48:04;-0.20;99.90
7159;DHT22;63175;52.374;13.132;2022-11-21T04:50:31;-0.10;99.90
7159;DHT22;63175;52.374;13.132;2022-11-21T04:52:58;-0.10;99.90
7159;DHT22;63175;52.374;13.132;2022-11-21T04:55:29;-0.10;99.90
7159;DHT22;63175;52.374;13.132;2022-11-21T04:57:58;-0.10;99.90
7159;DHT22;63175;52.374;13.132;2022-11-21T05:00:25;-0.10;99.90
7159;DHT22;63175;52.374;13.132;2022-11-21T05:02:52;-0.10;99.90
7159;DHT22;63175;52.374;13.132;2022-11-21T05:05:18;-0.20;99.90
7159;DHT22;63175;52.374;13.132;2022-11-21T05:07:45;-0.20;99.90
7159;DHT22;63175;52.374;13.132;2022-11-21T05:10:12;-0.20;99.90
7159;DHT22;63175;52.374;13.132;2022-11-21T05:12:39;-0.20;99.90
7159;DHT22;63175;52.374;13.132;2022-11-21T05:15:25;-0.20;99.90
7159;DHT22;63175;52.374;13.132;2022-11-21T05:17:52;-0.20;99.90
7159;DHT22;63175;52.374;13.132;2022-11-21T05:20:19;-0.20;99.90
7159;DHT22;63175;52.374;13.132;2022-11-21T05:22:50;-0.20;99.90
7159;DHT22;63175;52.374;13.132;2022-11-21T05:25:17;-0.30;99.90
7159;DHT22;63175;52.374;13.132;2022-11-21T05:27:44;-0.30;99.90
7159;DHT22;63175;52.374;13.132;2022-11-21T05:30:11;-0.30;99.90
7159;DHT22;63175;52.374;13.132;2022-11-21T05:32:40;-0.30;99.90
7159;DHT22;63175;52.374;13.132;2022-11-21T05:35:08;-0.30;99.90
7159;DHT22;63175;52.374;13.132;2022-11-21T05:37:35;-0.30;99.90
7159;DHT22;63175;52.374;13.132;2022-11-21T05:40:03;-0.30;99.90
7159;DHT22;63175;52.374;13.132;2022-11-21T05:42:30;-0.30;99.90
7159;DHT22;63175;52.374;13.132;2022-11-21T05:45:14;-0.30;99.90
7159;DHT22;63175;52.374;13.132;2022-11-21T05:47:43;-0.30;99.90
7159;DHT22;63175;52.374;13.132;2022-11-21T05:50:09;-0.30;99.90
7159;DHT22;63175;52.374;13.132;2022-11-21T05:52:36;-0.30;99.90
7159;DHT22;63175;52.374;13.132;2022-11-21T05:55:04;-0.30;99.90
7159;DHT22;63175;52.374;13.132;2022-11-21T05:57:31;-0.30;99.90
7159;DHT22;63175;52.374;13.132;2022-11-21T05:59:57;-0.30;99.90
7159;DHT22;63175;52.374;13.132;2022-11-21T06:02:24;-0.30;99.90
7159;DHT22;63175;52.374;13.132;2022-11-21T06:05:07;-0.30;99.90
7159;DHT22;63175;52.374;13.132;2022-11-21T06:07:34;-0.30;99.90
7159;DHT22;63175;52.374;13.132;2022-11-21T06:10:01;-0.30;99.90
7159;DHT22;63175;52.374;13.132;2022-11-21T06:12:28;-0.20;99.90
7159;DHT22;63175;52.374;13.132;2022-11-21T06:14:55;-0.20;99.90
7159;DHT22;63175;52.374;13.132;2022-11-21T06:17:22;-0.20;99.90
7159;DHT22;63175;52.374;13.132;2022-11-21T06:19:49;-0.20;99.90
7159;DHT22;63175;52.374;13.132;2022-11-21T06:22:17;-0.20;99.90
7159;DHT22;63175;52.374;13.132;2022-11-21T06:24:44;-0.20;99.90
7159;DHT22;63175;52.374;13.132;2022-11-21T06:27:11;-0.20;99.90
7159;DHT22;63175;52.374;13.132;2022-11-21T06:29:38;-0.20;99.90
7159;DHT22;63175;52.374;13.132;2022-11-21T06:32:05;-0.20;99.90
7159;DHT22;63175;52.374;13.132;2022-11-21T06:34:32;-0.20;99.90
7159;DHT22;63175;52.374;13.132;2022-11-21T06:36:58;-0.10;99.90
7159;DHT22;63175;52.374;13.132;2022-11-21T06:39:26;-0.10;99.90
7159;DHT22;63175;52.374;13.132;2022-11-21T06:41:53;-0.10;99.90
7159;DHT22;63175;52.374;13.132;2022-11-21T06:44:20;-0.10;99.90
7159;DHT22;63175;52.374;13.132;2022-11-21T06:46:47;-0.10;99.90
7159;DHT22;63175;52.374;13.132;2022-11-21T06:49:14;-0.10;99.90
7159;DHT22;63175;52.374;13.132;2022-11-21T06:51:41;-0.10;99.90
7159;DHT22;63175;52.374;13.132;2022-11-21T06:54:08;-0.10;99.90
7159;DHT22;63175;52.374;13.132;2022-11-21T06:56:36;-0.10;99.90
7159;DHT22;63175;52.374;13.132;2022-11-21T06:59:03;-0.10;99.90
7159;DHT22;63175;52.374;13.132;2022-11-21T07:01:30;0.00;99.90
7159;DHT22;63175;52.374;13.132;2022-11-21T07:03:56;0.00;99.90
7159;DHT22;63175;52.374;13.132;2022-11-21T07:06:23;0.00;99.90
7159;DHT22;63175;52.374;13.132;2022-11-21T07:08:52;0.00;99.90
7159;DHT22;63175;52.374;13.132;2022-11-21T07:11:19;0.00;99.90
7159;DHT22;63175;52.374;13.132;2022-11-21T07:13:48;0.00;99.90
7159;DHT22;63175;52.374;13.132;2022-11-21T07:16:14;0.00;99.90
7159;DHT22;63175;52.374;13.132;2022-11-21T07:18:41;0.00;99.90
7159;DHT22;63175;52.374;13.132;2022-11-21T07:21:09;0.10;99.90
7159;DHT22;63175;52.374;13.132;2022-11-21T07:23:36;0.10;99.90
7159;DHT22;63175;52.374;13.132;2022-11-21T07:26:04;0.10;99.90
7159;DHT22;63175;52.374;13.132;2022-11-21T07:28:32;0.10;99.90
7159;DHT22;63175;52.374;13.132;2022-11-21T07:31:00;0.10;99.90
7159;DHT22;63175;52.374;13.132;2022-11-21T07:33:28;0.10;99.90
7159;DHT22;63175;52.374;13.132;2022-11-21T07:35:56;0.10;99.90
7159;DHT22;63175;52.374;13.132;2022-11-21T07:38:23;0.10;99.90
7159;DHT22;63175;52.374;13.132;2022-11-21T07:40:50;0.10;99.90
7159;DHT22;63175;52.374;13.132;2022-11-21T07:43:17;0.10;99.90
7159;DHT22;63175;52.374;13.132;2022-11-21T07:45:44;0.10;99.90
7159;DHT22;63175;52.374;13.132;2022-11-21T07:48:12;0.10;99.90
7159;DHT22;63175;52.374;13.132;2022-11-21T07:50:39;0.10;99.90
7159;DHT22;63175;52.374;13.132;2022-11-21T07:53:08;0.10;99.90
7159;DHT22;63175;52.374;13.132;2022-11-21T07:55:35;0.10;99.90
7159;DHT22;63175;52.374;13.132;2022-11-21T07:58:04;0.10;99.90
7159;DHT22;63175;52.374;13.132;2022-11-21T08:00:33;0.10;99.90
7159;DHT22;63175;52.374;13.132;2022-11-21T08:03:01;0.10;99.90
7159;DHT22;63175;52.374;13.132;2022-11-21T08:05:30;0.10;99.90
7159;DHT22;63175;52.374;13.132;2022-11-21T08:07:57;0.10;99.90
7159;DHT22;63175;52.374;13.132;2022-11-21T08:10:24;0.10;99.90
7159;DHT22;63175;52.374;13.132;2022-11-21T08:12:51;0.00;99.90
7159;DHT22;63175;52.374;13.132;2022-11-21T08:15:18;0.00;99.90
7159;DHT22;63175;52.374;13.132;2022-11-21T08:17:44;0.00;99.90
7159;DHT22;63175;52.374;13.132;2022-11-21T08:20:11;-0.10;99.90
7159;DHT22;63175;52.374;13.132;2022-11-21T08:22:40;0.00;99.90
7159;DHT22;63175;52.374;13.132;2022-11-21T08:25:09;0.00;99.90
7159;DHT22;63175;52.374;13.132;2022-11-21T08:27:36;0.00;99.90
7159;DHT22;63175;52.374;13.132;2022-11-21T08:30:04;0.00;99.90
7159;DHT22;63175;52.374;13.132;2022-11-21T08:32:31;0.00;99.90
7159;DHT22;63175;52.374;13.132;2022-11-21T08:34:58;0.00;99.90
7159;DHT22;63175;52.374;13.132;2022-11-21T08:37:26;0.10;99.90
7159;DHT22;63175;52.374;13.132;2022-11-21T08:39:55;0.10;99.90
7159;DHT22;63175;52.374;13.132;2022-11-21T08:42:23;0.10;99.90
7159;DHT22;63175;52.374;13.132;2022-11-21T08:44:50;0.10;99.90
7159;DHT22;63175;52.374;13.132;2022-11-21T08:47:17;0.10;99.90
7159;DHT22;63175;52.374;13.132;2022-11-21T08:49:45;0.10;99.90
7159;DHT22;63175;52.374;13.132;2022-11-21T08:52:12;0.10;99.90
7159;DHT22;63175;52.374;13.132;2022-11-21T08:54:39;0.10;99.90
7159;DHT22;63175;52.374;13.132;2022-11-21T08:57:07;0.10;99.90
7159;DHT22;63175;52.374;13.132;2022-11-21T08:59:34;0.10;99.90
7159;DHT22;63175;52.374;13.132;2022-11-21T09:02:01;0.10;99.90
7159;DHT22;63175;52.374;13.132;2022-11-21T09:04:27;0.10;99.90
7159;DHT22;63175;52.374;13.132;2022-11-21T09:06:54;0.10;99.90
7159;DHT22;63175;52.374;13.132;2022-11-21T09:09:21;0.10;99.90
7159;DHT22;63175;52.374;13.132;2022-11-21T09:11:48;0.00;99.90
7159;DHT22;63175;52.374;13.132;2022-11-21T09:14:16;0.00;99.90
7159;DHT22;63175;52.374;13.132;2022-11-21T09:17:01;0.00;99.90
7159;DHT22;63175;52.374;13.132;2022-11-21T09:19:45;0.00;99.90
7159;DHT22;63175;52.374;13.132;2022-11-21T09:22:12;0.00;99.90
7159;DHT22;63175;52.374;13.132;2022-11-21T09:24:39;0.00;99.90
7159;DHT22;63175;52.374;13.132;2022-11-21T09:27:06;0.00;99.90
7159;DHT22;63175;52.374;13.132;2022-11-21T09:29:34;0.00;99.90
7159;DHT22;63175;52.374;13.132;2022-11-21T09:32:01;0.00;99.90
7159;DHT22;63175;52.374;13.132;2022-11-21T09:34:28;0.00;99.90
7159;DHT22;63175;52.374;13.132;2022-11-21T09:36:56;0.00;99.90
7159;DHT22;63175;52.374;13.132;2022-11-21T09:39:23;0.00;99.90
7159;DHT22;63175;52.374;13.132;2022-11-21T09:42:00;0.00;99.90
7159;DHT22;63175;52.374;13.132;2022-11-21T09:44:44;0.00;99.90
7159;DHT22;63175;52.374;13.132;2022-11-21T09:47:23;0.00;99.90
7159;DHT22;63175;52.374;13.132;2022-11-21T09:49:55;0.00;99.90
7159;DHT22;63175;52.374;13.132;2022-11-21T09:52:27;0.00;99.90
7159;DHT22;63175;52.374;13.132;2022-11-21T09:54:59;0.00;99.90
7159;DHT22;63175;52.374;13.132;2022-11-21T09:57:27;-0.10;99.90
7159;DHT22;63175;52.374;13.132;2022-11-21T09:59:55;0.00;99.90
7159;DHT22;63175;52.374;13.132;2022-11-21T10:02:23;-0.10;99.90
7159;DHT22;63175;52.374;13.132;2022-11-21T10:04:51;-0.10;99.90
7159;DHT22;63175;52.374;13.132;2022-11-21T10:07:23;-0.10;99.90
7159;DHT22;63175;52.374;13.132;2022-11-21T10:10:11;-0.10;99.90
7159;DHT22;63175;52.374;13.132;2022-11-21T10:12:48;-0.10;99.90
7159;DHT22;63175;52.374;13.132;2022-11-21T10:15:35;-0.10;99.90
7159;DHT22;63175;52.374;13.132;2022-11-21T10:18:19;0.00;99.90
7159;DHT22;63175;52.374;13.132;2022-11-21T10:20:54;0.00;99.90
7159;DHT22;63175;52.374;13.132;2022-11-21T10:23:53;-0.10;99.90
7159;DHT22;63175;52.374;13.132;2022-11-21T10:26:35;-0.10;99.90
7159;DHT22;63175;52.374;13.132;2022-11-21T10:29:13;0.00;99.90
7159;DHT22;63175;52.374;13.132;2022-11-21T10:31:43;0.00;99.90
7159;DHT22;63175;52.374;13.132;2022-11-21T10:34:14;0.00;99.90
7159;DHT22;63175;52.374;13.132;2022-11-21T10:36:46;0.00;99.90
7159;DHT22;63175;52.374;13.132;2022-11-21T10:39:18;0.00;99.90
7159;DHT22;63175;52.374;13.132;2022-11-21T10:41:49;0.10;99.90
7159;DHT22;63175;52.374;13.132;2022-11-21T10:44:26;0.10;99.90
7159;DHT22;63175;52.374;13.132;2022-11-21T10:47:18;0.10;99.90
7159;DHT22;63175;52.374;13.132;2022-11-21T10:49:56;0.10;99.90
7159;DHT22;63175;52.374;13.132;2022-11-21T10:52:25;0.10;99.90
7159;DHT22;63175;52.374;13.132;2022-11-21T10:55:09;0.20;99.90
7159;DHT22;63175;52.374;13.132;2022-11-21T10:57:40;0.20;99.90
7159;DHT22;63175;52.374;13.132;2022-11-21T11:00:22;0.20;99.90
7159;DHT22;63175;52.374;13.132;2022-11-21T11:03:05;0.30;99.90
7159;DHT22;63175;52.374;13.132;2022-11-21T11:05:34;0.30;99.90
7159;DHT22;63175;52.374;13.132;2022-11-21T11:08:04;0.30;99.90
7159;DHT22;63175;52.374;13.132;2022-11-21T11:10:33;0.30;99.90
7159;DHT22;63175;52.374;13.132;2022-11-21T11:13:00;0.30;99.90
7159;DHT22;63175;52.374;13.132;2022-11-21T11:15:54;0.40;99.90
7159;DHT22;63175;52.374;13.132;2022-11-21T11:18:24;0.40;99.90
7159;DHT22;63175;52.374;13.132;2022-11-21T11:20:51;0.40;99.90
7159;DHT22;63175;52.374;13.132;2022-11-21T11:23:25;0.40;99.90
7159;DHT22;63175;52.374;13.132;2022-11-21T11:25:54;0.40;99.90
7159;DHT22;63175;52.374;13.132;2022-11-21T11:28:22;0.40;99.90
7159;DHT22;63175;52.374;13.132;2022-11-21T11:30:50;0.40;99.90
7159;DHT22;63175;52.374;13.132;2022-11-21T11:33:31;0.40;99.90
7159;DHT22;63175;52.374;13.132;2022-11-21T11:36:09;0.40;99.90
7159;DHT22;63175;52.374;13.132;2022-11-21T11:38:37;0.40;99.90
7159;DHT22;63175;52.374;13.132;2022-11-21T11:41:13;0.40;99.90
7159;DHT22;63175;52.374;13.132;2022-11-21T11:43:48;0.40;99.90
7159;DHT22;63175;52.374;13.132;2022-11-21T11:46:43;0.50;99.90
7159;DHT22;63175;52.374;13.132;2022-11-21T11:49:34;0.40;99.90
7159;DHT22;63175;52.374;13.132;2022-11-21T11:52:25;0.40;99.90
7159;DHT22;63175;52.374;13.132;2022-11-21T11:54:57;0.40;99.90
7159;DHT22;63175;52.374;13.132;2022-11-21T11:57:30;0.40;99.90
7159;DHT22;63175;52.374;13.132;2022-11-21T12:00:04;0.40;99.90
7159;DHT22;63175;52.374;13.132;2022-11-21T12:02:43;0.40;99.90
7159;DHT22;63175;52.374;13.132;2022-11-21T12:05:18;0.40;99.90
7159;DHT22;63175;52.374;13.132;2022-11-21T12:07:50;0.50;99.90
7159;DHT22;63175;52.374;13.132;2022-11-21T12:10:25;0.50;99.90
7159;DHT22;63175;52.374;13.132;2022-11-21T12:13:02;0.50;99.90
7159;DHT22;63175;52.374;13.132;2022-11-21T12:15:33;0.50;99.90
7159;DHT22;63175;52.374;13.132;2022-11-21T12:18:21;0.50;99.90
7159;DHT22;63175;52.374;13.132;2022-11-21T12:20:54;0.50;99.90
7159;DHT22;63175;52.374;13.132;2022-11-21T12:23:25;0.50;99.90
7159;DHT22;63175;52.374;13.132;2022-11-21T12:25:57;0.60;99.90
7159;DHT22;63175;52.374;13.132;2022-11-21T12:28:35;0.60;99.90
7159;DHT22;63175;52.374;13.132;2022-11-21T12:31:08;0.60;99.90
7159;DHT22;63175;52.374;13.132;2022-11-21T12:33:46;0.60;99.90
7159;DHT22;63175;52.374;13.132;2022-11-21T12:36:24;0.60;99.90
7159;DHT22;63175;52.374;13.132;2022-11-21T12:39:09;0.60;99.90
7159;DHT22;63175;52.374;13.132;2022-11-21T12:41:42;0.70;99.90
7159;DHT22;63175;52.374;13.132;2022-11-21T12:44:51;0.70;99.90
7159;DHT22;63175;52.374;13.132;2022-11-21T12:47:32;0.70;99.90
7159;DHT22;63175;52.374;13.132;2022-11-21T12:50:25;0.70;99.90
7159;DHT22;63175;52.374;13.132;2022-11-21T12:53:17;0.70;99.90
7159;DHT22;63175;52.374;13.132;2022-11-21T12:56:11;0.70;99.90
7159;DHT22;63175;52.374;13.132;2022-11-21T12:58:41;0.70;99.90
7159;DHT22;63175;52.374;13.132;2022-11-21T13:01:18;0.80;99.90
7159;DHT22;63175;52.374;13.132;2022-11-21T13:03:53;0.80;99.90
7159;DHT22;63175;52.374;13.132;2022-11-21T13:06:23;0.80;99.90
7159;DHT22;63175;52.374;13.132;2022-11-21T13:08:54;0.80;99.90
7159;DHT22;63175;52.374;13.132;2022-11-21T13:11:32;0.80;99.90
7159;DHT22;63175;52.374;13.132;2022-11-21T13:14:26;0.80;99.90
7159;DHT22;63175;52.374;13.132;2022-11-21T13:17:05;0.80;99.90
7159;DHT22;63175;52.374;13.132;2022-11-21T13:19:41;0.80;99.90
7159;DHT22;63175;52.374;13.132;2022-11-21T13:25:10;0.80;99.90
7159;DHT22;63175;52.374;13.132;2022-11-21T13:27:38;0.80;99.90
7159;DHT22;63175;52.374;13.132;2022-11-21T13:30:24;0.80;99.90
7159;DHT22;63175;52.374;13.132;2022-11-21T13:32:52;0.80;99.90
7159;DHT22;63175;52.374;13.132;2022-11-21T13:38:25;0.80;99.90
7159;DHT22;63175;52.374;13.132;2022-11-21T13:40:53;0.80;99.90
7159;DHT22;63175;52.374;13.132;2022-11-21T13:43:37;0.80;99.90
7159;DHT22;63175;52.374;13.132;2022-11-21T13:46:04;0.70;99.90
7159;DHT22;63175;52.374;13.132;2022-11-21T13:48:59;0.80;99.90
7159;DHT22;63175;52.374;13.132;2022-11-21T13:51:54;0.80;99.90
7159;DHT22;63175;52.374;13.132;2022-11-21T13:55:03;0.70;99.90
7159;DHT22;63175;52.374;13.132;2022-11-21T13:57:56;0.70;99.90
7159;DHT22;63175;52.374;13.132;2022-11-21T14:00:37;0.70;99.90
7159;DHT22;63175;52.374;13.132;2022-11-21T14:03:32;0.60;99.90
7159;DHT22;63175;52.374;13.132;2022-11-21T14:06:24;0.70;99.90
7159;DHT22;63175;52.374;13.132;2022-11-21T14:09:21;0.60;99.90
7159;DHT22;63175;52.374;13.132;2022-11-21T14:11:52;0.60;99.90
7159;DHT22;63175;52.374;13.132;2022-11-21T14:14:33;0.60;99.90
7159;DHT22;63175;52.374;13.132;2022-11-21T14:17:25;0.60;99.90
7159;DHT22;63175;52.374;13.132;2022-11-21T14:19:55;0.60;99.90
7159;DHT22;63175;52.374;13.132;2022-11-21T14:22:26;0.50;99.90
7159;DHT22;63175;52.374;13.132;2022-11-21T14:24:54;0.50;99.90
7159;DHT22;63175;52.374;13.132;2022-11-21T14:27:26;0.50;99.90
7159;DHT22;63175;52.374;13.132;2022-11-21T14:29:56;0.50;99.90
7159;DHT22;63175;52.374;13.132;2022-11-21T14:32:27;0.50;99.90
7159;DHT22;63175;52.374;13.132;2022-11-21T14:35:07;0.50;99.90
7159;DHT22;63175;52.374;13.132;2022-11-21T14:37:34;0.50;99.90
7159;DHT22;63175;52.374;13.132;2022-11-21T14:40:03;0.50;99.90
7159;DHT22;63175;52.374;13.132;2022-11-21T14:42:34;0.50;99.90
7159;DHT22;63175;52.374;13.132;2022-11-21T14:45:15;0.50;99.90
7159;DHT22;63175;52.374;13.132;2022-11-21T14:47:47;0.40;99.90
7159;DHT22;63175;52.374;13.132;2022-11-21T14:50:22;0.40;99.90
7159;DHT22;63175;52.374;13.132;2022-11-21T14:52:49;0.40;99.90
7159;DHT22;63175;52.374;13.132;2022-11-21T14:55:24;0.40;99.90
7159;DHT22;63175;52.374;13.132;2022-11-21T14:57:52;0.40;99.90
7159;DHT22;63175;52.374;13.132;2022-11-21T15:00:22;0.40;99.90
7159;DHT22;63175;52.374;13.132;2022-11-21T15:02:52;0.40;99.90
7159;DHT22;63175;52.374;13.132;2022-11-21T15:05:21;0.40;99.90
7159;DHT22;63175;52.374;13.132;2022-11-21T15:07:49;0.30;99.90
7159;DHT22;63175;52.374;13.132;2022-11-21T15:10:17;0.30;99.90
7159;DHT22;63175;52.374;13.132;2022-11-21T15:12:49;0.30;99.90
7159;DHT22;63175;52.374;13.132;2022-11-21T15:15:28;0.30;99.90
7159;DHT22;63175;52.374;13.132;2022-11-21T15:17:57;0.30;99.90
7159;DHT22;63175;52.374;13.132;2022-11-21T15:20:25;0.30;99.90
7159;DHT22;63175;52.374;13.132;2022-11-21T15:22:54;0.30;99.90
7159;DHT22;63175;52.374;13.132;2022-11-21T15:25:23;0.20;99.90
7159;DHT22;63175;52.374;13.132;2022-11-21T15:27:51;0.20;99.90
7159;DHT22;63175;52.374;13.132;2022-11-21T15:30:21;0.20;99.90
7159;DHT22;63175;52.374;13.132;2022-11-21T15:33:01;0.20;99.90
7159;DHT22;63175;52.374;13.132;2022-11-21T15:35:38;0.10;99.90
7159;DHT22;63175;52.374;13.132;2022-11-21T15:38:16;0.10;99.90
7159;DHT22;63175;52.374;13.132;2022-11-21T15:40:58;0.10;99.90
7159;DHT22;63175;52.374;13.132;2022-11-21T15:43:36;0.10;99.90
7159;DHT22;63175;52.374;13.132;2022-11-21T15:46:12;0.00;99.90
7159;DHT22;63175;52.374;13.132;2022-11-21T15:48:41;0.00;99.90
7159;DHT22;63175;52.374;13.132;2022-11-21T15:51:08;0.00;99.90
7159;DHT22;63175;52.374;13.132;2022-11-21T15:53:35;-0.10;99.90
7159;DHT22;63175;52.374;13.132;2022-11-21T15:56:02;-0.10;99.90
7159;DHT22;63175;52.374;13.132;2022-11-21T15:58:29;-0.10;99.90
7159;DHT22;63175;52.374;13.132;2022-11-21T16:00:57;-0.10;99.90
7159;DHT22;63175;52.374;13.132;2022-11-21T16:03:24;-0.20;99.90
7159;DHT22;63175;52.374;13.132;2022-11-21T16:05:52;-0.20;99.90
7159;DHT22;63175;52.374;13.132;2022-11-21T16:08:19;-0.20;99.90